Time;durP1;ratioP1;P1;durP2;ratioP2;P2;SDS_P1;SDS_P2;PMS_P1;PMS_P2;Temp;Humidity;BMP_temperature;BMP_pressure;BME280_temperature;BME280_humidity;BME280_pressure;Samples;Min_cycle;Max_cycle;Signal;HPM_P1;HPM_P2
2021/04/26 00:01:41;;;;;;;19.30;8.63;;;;;;;22.00;12.91;98522.09;5043324;28;20029;-85
2021/04/26 00:04:07;;;;;;;27.10;10.35;;;;;;;21.93;13.05;98527.72;5043470;28;20104;-85
2021/04/26 00:06:33;;;;;;;26.92;10.25;;;;;;;21.89;12.95;98520.56;5037069;28;20394;-85
2021/04/26 00:08:59;;;;;;;22.35;8.63;;;;;;;21.96;13.11;98526.88;5038413;28;20044;-85
2021/04/26 00:11:26;;;;;;;25.33;9.00;;;;;;;22.24;12.67;98525.88;5036286;28;20065;-85
2021/04/26 00:13:52;;;;;;;21.00;7.82;;;;;;;22.43;12.84;98524.53;5036940;28;20099;-85
2021/04/26 00:16:18;;;;;;;23.50;8.70;;;;;;;22.23;13.13;98523.50;5039490;28;20080;-85
2021/04/26 00:18:44;;;;;;;20.63;7.68;;;;;;;22.24;12.67;98531.47;5033076;28;20139;-84
2021/04/26 00:21:10;;;;;;;17.52;8.65;;;;;;;22.19;13.19;98539.53;5042320;28;20034;-85
2021/04/26 00:23:36;;;;;;;16.85;8.18;;;;;;;21.68;13.53;98527.00;5043219;28;20108;-85
2021/04/26 00:26:02;;;;;;;18.58;8.48;;;;;;;21.73;13.66;98545.34;5047581;28;20382;-85
2021/04/26 00:28:28;;;;;;;17.85;7.80;;;;;;;21.96;13.43;98537.28;5034225;28;20068;-85
2021/04/26 00:30:54;;;;;;;19.40;7.95;;;;;;;21.79;13.58;98541.75;5039940;28;20032;-85
2021/04/26 00:33:20;;;;;;;16.02;6.82;;;;;;;21.38;13.62;98537.91;5034206;28;20040;-85
2021/04/26 00:35:47;;;;;;;21.38;7.57;;;;;;;21.52;13.35;98535.06;5032977;28;20037;-85
2021/04/26 00:38:13;;;;;;;17.48;7.07;;;;;;;21.83;13.41;98534.13;5039915;28;20068;-85
2021/04/26 00:40:39;;;;;;;18.55;7.60;;;;;;;21.97;13.08;98528.47;5046246;28;20068;-85
2021/04/26 00:43:05;;;;;;;22.05;8.60;;;;;;;22.19;12.85;98531.94;5038631;28;20025;-85
2021/04/26 00:45:31;;;;;;;21.63;7.97;;;;;;;22.17;12.71;98523.13;5034471;28;20113;-85
2021/04/26 00:47:57;;;;;;;19.55;8.27;;;;;;;22.31;12.90;98525.06;5045717;28;20037;-85
2021/04/26 00:50:26;;;;;;;24.33;9.35;;;;;;;22.29;13.29;98527.44;5033764;28;20057;-85
2021/04/26 00:52:54;;;;;;;16.92;7.50;;;;;;;22.43;13.07;98532.94;5034120;28;20083;-85
2021/04/26 00:55:22;;;;;;;21.40;7.95;;;;;;;22.07;13.24;98526.81;5042442;28;20155;-84
2021/04/26 00:57:48;;;;;;;18.58;7.20;;;;;;;21.84;13.70;98532.16;5039423;28;20071;-85
2021/04/26 01:00:15;;;;;;;17.95;7.15;;;;;;;21.64;13.53;98536.63;5034906;28;20049;-85
2021/04/26 01:02:42;;;;;;;15.20;6.30;;;;;;;21.72;13.59;98532.59;5042095;28;20368;-84
2021/04/26 01:05:11;;;;;;;17.52;7.65;;;;;;;21.88;13.48;98535.72;5033177;28;20502;-85
2021/04/26 01:07:38;;;;;;;18.48;6.60;;;;;;;21.83;13.59;98533.31;5036514;28;20499;-86
2021/04/26 01:10:07;;;;;;;14.98;5.95;;;;;;;21.15;14.23;98534.81;5045314;28;20033;-85
2021/04/26 01:13:11;;;;;;;15.80;5.72;;;;;;;20.58;14.33;98525.72;5032985;28;20057;-85
2021/04/26 01:16:18;;;;;;;19.73;7.78;;;;;;;21.11;14.02;98534.03;5042383;28;20549;-85
2021/04/26 01:19:00;;;;;;;19.63;7.28;;;;;;;21.00;13.91;98536.03;5036791;28;20033;-85
2021/04/26 01:21:45;;;;;;;20.05;8.27;;;;;;;21.29;13.59;98529.97;5039257;28;20037;-85
2021/04/26 01:24:47;;;;;;;15.73;7.53;;;;;;;21.67;13.38;98524.63;5035191;28;20499;-85
2021/04/26 01:27:34;;;;;;;18.40;7.30;;;;;;;22.15;12.97;98511.56;5043568;28;20041;-85
2021/04/26 01:30:34;;;;;;;17.13;6.75;;;;;;;22.24;13.28;98514.69;5033589;28;20038;-85
2021/04/26 01:33:09;;;;;;;21.95;8.30;;;;;;;21.81;13.68;98516.16;5044020;28;20391;-86
2021/04/26 01:35:35;;;;;;;19.88;8.10;;;;;;;21.47;13.96;98512.38;5036694;28;20029;-86
2021/04/26 01:38:23;;;;;;;17.58;6.22;;;;;;;21.53;13.63;98513.53;5049478;28;20506;-85
2021/04/26 01:40:52;;;;;;;17.85;7.38;;;;;;;22.13;13.49;98513.19;5047773;28;20501;-85
2021/04/26 01:43:22;;;;;;;17.35;7.57;;;;;;;22.19;13.27;98512.38;5038847;28;20033;-85
2021/04/26 01:45:53;;;;;;;14.85;6.20;;;;;;;21.94;13.50;98506.94;5039796;28;20360;-85
2021/04/26 01:48:19;;;;;;;14.73;5.20;;;;;;;22.08;13.45;98511.63;5038288;28;20040;-85
2021/04/26 01:50:47;;;;;;;16.90;7.03;;;;;;;22.17;13.23;98511.19;5045908;28;20041;-85
2021/04/26 01:53:15;;;;;;;15.07;6.10;;;;;;;22.21;13.42;98517.53;5045222;28;20024;-85
2021/04/26 01:55:42;;;;;;;17.45;5.88;;;;;;;22.49;13.08;98506.91;5041093;28;20501;-85
2021/04/26 01:58:08;;;;;;;14.45;6.97;;;;;;;22.81;13.02;98503.03;5041559;28;20108;-85
2021/04/26 02:00:36;;;;;;;19.05;7.32;;;;;;;22.80;13.02;98505.03;5043470;28;20048;-85
2021/04/26 02:03:03;;;;;;;17.63;8.07;;;;;;;22.90;13.04;98506.13;5048572;28;20033;-85
2021/04/26 02:05:30;;;;;;;19.23;7.07;;;;;;;22.90;13.16;98492.94;5044102;28;20037;-85
2021/04/26 02:07:57;;;;;;;18.92;6.57;;;;;;;22.97;12.98;98500.47;5049557;28;20498;-84
2021/04/26 02:10:28;;;;;;;32.72;12.60;;;;;;;22.93;12.92;98494.91;5036463;28;20098;-85
2021/04/26 02:12:56;;;;;;;21.95;8.55;;;;;;;22.39;13.63;98496.59;5036180;28;20104;-85
2021/04/26 02:15:23;;;;;;;16.88;6.45;;;;;;;21.93;14.03;98498.97;5055707;28;20029;-85
2021/04/26 02:17:50;;;;;;;19.17;8.30;;;;;;;21.90;13.92;98497.78;5040513;28;20419;-85
2021/04/26 02:20:18;;;;;;;24.80;10.13;;;;;;;22.08;13.50;98488.47;5041517;28;20036;-85
2021/04/26 02:22:47;;;;;;;23.55;9.57;;;;;;;22.37;13.42;98490.63;5044503;28;20056;-85
2021/04/26 02:25:14;;;;;;;25.90;10.27;;;;;;;22.43;13.10;98482.56;5039275;28;20376;-85
2021/04/26 02:27:40;;;;;;;21.20;9.32;;;;;;;22.06;13.85;98485.28;5038215;28;20091;-85
2021/04/26 02:30:08;;;;;;;16.55;7.90;;;;;;;21.45;14.37;98482.03;5045622;28;20041;-85
2021/04/26 02:32:54;;;;;;;20.13;8.45;;;;;;;20.50;15.01;98480.31;5036737;28;20458;-85
2021/04/26 02:35:44;;;;;;;16.95;7.28;;;;;;;20.76;14.72;98475.47;5038357;28;20363;-85
2021/04/26 02:38:18;;;;;;;17.43;7.77;;;;;;;21.45;13.63;98476.44;5042403;28;20082;-85
2021/04/26 02:40:47;;;;;;;20.20;7.35;;;;;;;21.87;13.34;98475.41;5042736;28;20033;-85
2021/04/26 02:43:15;;;;;;;17.80;7.78;;;;;;;22.06;13.33;98474.88;5041284;28;20052;-85
2021/04/26 02:45:50;;;;;;;17.08;6.03;;;;;;;22.07;13.37;98470.91;5040084;28;20064;-85
2021/04/26 02:48:17;;;;;;;19.70;6.47;;;;;;;22.07;13.30;98476.50;5047250;28;20037;-85
2021/04/26 02:50:44;;;;;;;16.73;6.43;;;;;;;21.70;13.52;98465.94;5038869;28;20057;-86
2021/04/26 02:53:12;;;;;;;12.93;5.78;;;;;;;21.55;13.35;98472.81;5049328;28;20033;-85
2021/04/26 02:55:41;;;;;;;18.33;7.18;;;;;;;21.72;13.22;98474.72;5040974;28;20453;-86
2021/04/26 02:58:08;;;;;;;15.32;5.68;;;;;;;21.96;13.24;98473.75;5045594;28;20080;-85
2021/04/26 03:00:35;;;;;;;15.02;6.03;;;;;;;22.17;12.84;98475.59;5039898;28;20041;-85
2021/04/26 03:03:03;;;;;;;16.10;6.28;;;;;;;22.16;12.89;98476.00;5044324;28;20034;-85
2021/04/26 03:05:29;;;;;;;15.35;5.53;;;;;;;21.96;13.11;98467.41;5040457;28;20495;-85
2021/04/26 03:07:56;;;;;;;17.92;6.43;;;;;;;21.78;13.28;98467.47;5050678;28;20497;-85
2021/04/26 03:10:22;;;;;;;15.35;6.50;;;;;;;21.91;13.28;98482.56;5045811;28;20179;-85
2021/04/26 03:12:50;;;;;;;14.77;6.03;;;;;;;21.83;13.21;98483.00;5035212;28;20041;-85
2021/04/26 03:15:27;;;;;;;13.13;5.78;;;;;;;21.72;13.59;98483.09;5044647;28;20056;-85
2021/04/26 03:17:54;;;;;;;17.58;6.90;;;;;;;21.64;13.61;98483.53;5045133;28;20052;-84
2021/04/26 03:20:21;;;;;;;11.27;5.18;;;;;;;21.70;13.17;98477.13;5043772;28;20055;-85
2021/04/26 03:22:49;;;;;;;13.07;5.78;;;;;;;21.76;13.30;98480.25;5050356;28;20412;-85
2021/04/26 03:25:20;;;;;;;16.25;5.65;;;;;;;21.61;13.75;98487.16;5038076;28;20431;-85
2021/04/26 03:27:47;;;;;;;12.80;5.00;;;;;;;21.55;13.74;98486.78;5045204;28;20131;-85
2021/04/26 03:30:17;;;;;;;15.80;5.03;;;;;;;21.39;13.88;98485.66;5040408;28;20559;-85
2021/04/26 03:32:44;;;;;;;11.30;5.15;;;;;;;21.39;13.88;98491.25;5035384;28;20047;-85
2021/04/26 03:35:14;;;;;;;12.70;5.28;;;;;;;21.65;13.24;98494.31;5037501;28;20120;-85
2021/04/26 03:37:41;;;;;;;11.40;5.07;;;;;;;21.91;13.23;98487.41;5044456;28;20061;-85
2021/04/26 03:40:08;;;;;;;13.27;4.93;;;;;;;22.08;12.91;98492.03;5034996;28;20029;-85
2021/04/26 03:42:34;;;;;;;17.92;6.30;;;;;;;22.14;12.84;98487.63;5046857;28;20441;-85
2021/04/26 03:45:00;;;;;;;15.60;6.43;;;;;;;22.22;12.96;98499.56;5041805;28;20029;-85
2021/04/26 03:47:27;;;;;;;16.45;6.55;;;;;;;22.26;12.99;98503.91;5039896;28;20048;-85
2021/04/26 03:49:53;;;;;;;16.35;6.90;;;;;;;22.31;12.83;98503.44;5048337;28;20033;-86
2021/04/26 03:52:19;;;;;;;13.40;6.78;;;;;;;22.48;12.80;98493.31;5046557;28;20375;-85
2021/04/26 03:54:45;;;;;;;14.48;5.60;;;;;;;22.87;12.57;98502.16;5040366;28;20039;-84
2021/04/26 03:57:11;;;;;;;13.38;6.32;;;;;;;23.16;12.57;98506.25;5041817;28;20048;-85
2021/04/26 03:59:38;;;;;;;14.05;6.90;;;;;;;22.71;12.81;98501.94;5021381;28;20052;-85
2021/04/26 04:02:04;;;;;;;14.70;5.90;;;;;;;22.68;12.76;98508.38;5043367;28;20025;-85
2021/04/26 04:04:30;;;;;;;12.88;5.22;;;;;;;23.07;12.83;98505.16;5045481;28;20051;-85
2021/04/26 04:06:56;;;;;;;11.88;4.80;;;;;;;23.67;12.50;98504.44;5046021;28;20045;-85
2021/04/26 04:09:22;;;;;;;9.57;4.60;;;;;;;24.16;12.27;98512.19;5045657;28;20123;-85
2021/04/26 04:11:48;;;;;;;11.98;5.25;;;;;;;24.30;12.68;98523.19;5047559;28;20037;-86
2021/04/26 04:14:14;;;;;;;12.35;5.28;;;;;;;24.56;12.78;98510.31;5033801;28;20033;-86
2021/04/26 04:16:40;;;;;;;12.43;5.32;;;;;;;24.68;13.19;98513.31;5039600;28;20034;-85
2021/04/26 04:19:07;;;;;;;12.18;4.82;;;;;;;24.77;13.24;98515.59;5040898;28;20037;-86
2021/04/26 04:21:33;;;;;;;11.07;4.88;;;;;;;24.80;13.08;98522.38;5044154;28;20124;-86
2021/04/26 04:24:00;;;;;;;13.63;5.22;;;;;;;24.58;13.70;98521.91;5041043;28;20526;-85
2021/04/26 04:26:27;;;;;;;11.82;5.13;;;;;;;24.52;13.95;98526.44;5038136;28;20037;-86
2021/04/26 04:28:53;;;;;;;10.32;4.65;;;;;;;24.70;13.91;98522.13;5046181;28;20033;-86
2021/04/26 04:31:19;;;;;;;10.25;4.28;;;;;;;24.82;13.70;98523.53;5045727;28;20104;-85
2021/04/26 04:33:45;;;;;;;13.68;5.85;;;;;;;24.42;14.02;98530.22;5043283;28;20029;-86
2021/04/26 04:36:12;;;;;;;11.43;5.07;;;;;;;24.32;14.14;98534.75;5043041;28;20482;-85
2021/04/26 04:38:38;;;;;;;10.00;4.47;;;;;;;24.54;13.84;98527.59;5051047;28;20418;-86
2021/04/26 04:41:04;;;;;;;12.50;5.72;;;;;;;24.74;13.70;98527.66;5046335;28;20371;-86
2021/04/26 04:43:30;;;;;;;14.70;5.68;;;;;;;24.77;13.18;98526.03;5036505;28;20041;-85
2021/04/26 04:45:57;;;;;;;13.93;5.82;;;;;;;24.43;13.09;98529.00;5039275;28;20057;-85
2021/04/26 04:48:23;;;;;;;14.75;5.35;;;;;;;24.47;13.33;98533.34;5042740;28;20143;-85
2021/04/26 04:50:49;;;;;;;16.52;7.15;;;;;;;24.47;13.20;98524.91;5045040;28;20025;-85
2021/04/26 04:53:15;;;;;;;31.15;9.73;;;;;;;24.13;13.30;98540.28;5042682;28;20037;-84
2021/04/26 04:55:41;;;;;;;31.35;11.80;;;;;;;24.12;13.44;98533.88;5042776;28;20029;-85
2021/04/26 04:58:07;;;;;;;21.40;8.80;;;;;;;24.36;13.45;98545.97;5045268;28;20503;-86
2021/04/26 05:00:33;;;;;;;15.88;7.05;;;;;;;24.70;13.16;98540.97;5038517;28;20041;-85
2021/04/26 05:02:59;;;;;;;12.85;6.53;;;;;;;25.06;12.80;98535.56;5041715;28;20124;-86
2021/04/26 05:05:25;;;;;;;11.00;4.90;;;;;;;25.16;13.06;98535.34;5048109;28;20032;-86
2021/04/26 05:07:51;;;;;;;15.25;6.05;;;;;;;25.41;13.02;98529.25;5049187;28;20044;-85
2021/04/26 05:10:18;;;;;;;12.82;6.13;;;;;;;25.62;12.74;98536.47;5052872;28;20055;-85
2021/04/26 05:12:44;;;;;;;14.75;5.65;;;;;;;25.87;12.89;98534.72;5045617;28;20043;-86
2021/04/26 05:15:10;;;;;;;12.75;5.85;;;;;;;25.81;12.90;98541.28;5044181;28;20025;-86
2021/04/26 05:17:37;;;;;;;13.55;5.43;;;;;;;25.75;12.68;98535.38;5036867;28;20046;-83
2021/04/26 05:20:04;;;;;;;15.25;5.63;;;;;;;25.82;12.75;98535.22;5044051;28;20025;-84
2021/04/26 05:22:34;;;;;;;13.05;5.75;;;;;;;25.92;12.68;98537.00;5047454;28;20025;-83
2021/04/26 05:25:02;;;;;;;9.73;4.60;;;;;;;25.97;12.61;98546.97;5045038;28;20025;-82
2021/04/26 05:27:28;;;;;;;11.85;5.45;;;;;;;26.25;13.06;98535.09;5044212;28;20044;-82
2021/04/26 05:29:54;;;;;;;10.90;4.97;;;;;;;26.39;12.82;98534.75;5049640;28;20108;-84
2021/04/26 05:32:20;;;;;;;10.93;5.45;;;;;;;26.38;12.53;98530.34;5044641;28;20032;-85
2021/04/26 05:34:47;;;;;;;11.77;5.07;;;;;;;26.46;12.74;98536.59;5041165;28;20024;-86
2021/04/26 05:37:13;;;;;;;12.52;4.63;;;;;;;26.65;13.06;98539.31;5052174;28;20029;-85
2021/04/26 05:39:39;;;;;;;13.45;5.93;;;;;;;26.75;12.46;98534.66;5046810;28;20506;-86
2021/04/26 05:42:06;;;;;;;12.63;5.78;;;;;;;26.66;12.52;98535.28;5047085;28;20051;-85
2021/04/26 05:44:32;;;;;;;14.65;6.70;;;;;;;26.06;13.04;98530.28;5054174;28;20111;-85
2021/04/26 05:46:58;;;;;;;13.18;5.15;;;;;;;26.23;13.68;98529.09;5050719;28;20040;-86
2021/04/26 05:49:24;;;;;;;13.43;5.30;;;;;;;25.64;13.13;98529.19;5050722;28;20029;-86
2021/04/26 05:51:50;;;;;;;12.88;5.47;;;;;;;25.62;12.94;98525.22;5055472;28;20382;-87
2021/04/26 05:54:17;;;;;;;14.00;5.55;;;;;;;24.85;13.71;98530.31;5052082;28;20029;-86
2021/04/26 05:56:43;;;;;;;15.23;5.47;;;;;;;25.38;13.89;98522.47;5053021;28;20039;-86
2021/04/26 05:59:09;;;;;;;17.13;7.15;;;;;;;25.12;13.54;98512.13;5048759;28;20069;-87
2021/04/26 06:01:35;;;;;;;17.00;8.30;;;;;;;25.61;13.81;98518.78;5048972;28;20036;-87
2021/04/26 06:04:01;;;;;;;12.38;5.78;;;;;;;25.61;13.08;98521.63;5051200;28;20486;-86
2021/04/26 06:06:28;;;;;;;13.07;5.57;;;;;;;25.33;13.88;98520.16;5053376;28;20033;-87
2021/04/26 06:08:54;;;;;;;14.45;6.00;;;;;;;25.63;13.21;98513.53;5055286;28;20028;-87
2021/04/26 06:11:20;;;;;;;14.40;6.65;;;;;;;25.22;13.00;98519.56;5053926;28;20037;-87
2021/04/26 06:13:46;;;;;;;12.00;4.93;;;;;;;25.50;12.90;98517.44;5054462;28;20448;-88
2021/04/26 06:16:13;;;;;;;11.88;5.78;;;;;;;25.60;13.14;98520.00;5051842;28;20033;-87
2021/04/26 06:18:39;;;;;;;14.57;7.55;;;;;;;25.52;13.09;98526.22;5049579;28;20029;-87
2021/04/26 06:21:05;;;;;;;11.88;6.32;;;;;;;24.36;13.65;98521.50;5051796;28;20124;-87
2021/04/26 06:23:31;;;;;;;14.82;6.97;;;;;;;23.33;14.77;98526.88;5047106;28;20029;-87
2021/04/26 06:25:57;;;;;;;17.27;7.15;;;;;;;22.29;15.66;98522.66;5049093;28;20041;-87
2021/04/26 06:28:23;;;;;;;15.45;7.28;;;;;;;21.94;15.48;98522.91;5042233;28;20033;-87
2021/04/26 06:30:50;;;;;;;22.13;8.90;;;;;;;21.66;16.00;98515.44;5053352;28;20025;-88
2021/04/26 06:33:16;;;;;;;11.82;6.18;;;;;;;21.21;17.61;98519.25;5045259;28;20029;-87
2021/04/26 06:35:50;;;;;;;12.88;6.53;;;;;;;19.77;17.58;98520.84;5039299;28;20044;-88
2021/04/26 06:38:17;;;;;;;15.07;6.75;;;;;;;20.14;17.93;98516.94;5046940;28;20060;-89
2021/04/26 06:40:44;;;;;;;14.23;6.07;;;;;;;20.19;17.53;98519.31;5054398;28;20025;-88
2021/04/26 06:43:14;;;;;;;14.55;6.90;;;;;;;20.02;17.04;98514.53;5046229;28;20033;-87
2021/04/26 06:45:44;;;;;;;14.30;5.70;;;;;;;19.97;16.53;98516.53;5048582;28;20060;-88
2021/04/26 06:48:14;;;;;;;9.13;4.65;;;;;;;20.60;16.56;98517.75;5040372;28;20036;-88
2021/04/26 06:50:41;;;;;;;12.10;5.33;;;;;;;21.80;15.54;98504.19;5043395;28;20033;-88
2021/04/26 06:53:07;;;;;;;11.93;5.15;;;;;;;20.88;15.63;98525.28;5038742;28;20078;-88
2021/04/26 06:55:34;;;;;;;9.45;4.93;;;;;;;20.73;16.31;98518.91;5040460;28;20095;-88
2021/04/26 06:58:00;;;;;;;10.05;4.75;;;;;;;20.55;16.83;98515.38;5035022;28;20505;-88
2021/04/26 07:00:28;;;;;;;10.20;4.20;;;;;;;21.83;15.26;98494.19;5035780;28;20037;-88
2021/04/26 07:02:55;;;;;;;9.13;4.43;;;;;;;22.62;14.03;98501.63;5044652;28;20043;-87
2021/04/26 07:05:21;;;;;;;7.13;3.20;;;;;;;19.92;15.72;98528.06;5039756;28;20017;-86
2021/04/26 07:07:47;;;;;;;9.15;4.35;;;;;;;17.49;17.65;98512.41;5043486;28;20120;-88
2021/04/26 07:10:14;;;;;;;9.77;4.00;;;;;;;20.42;16.27;98503.81;5041881;28;20033;-88
2021/04/26 07:12:41;;;;;;;8.98;3.85;;;;;;;19.64;15.59;98519.63;5042938;28;20498;-88
2021/04/26 07:15:09;;;;;;;9.00;4.00;;;;;;;20.85;15.39;98512.13;5040386;28;20492;-87
2021/04/26 07:17:35;;;;;;;8.07;2.85;;;;;;;20.57;15.34;98507.38;5036116;28;20045;-87
2021/04/26 07:20:07;;;;;;;8.40;3.72;;;;;;;20.45;15.91;98503.00;5040516;28;20018;-88
2021/04/26 07:22:34;;;;;;;7.55;3.85;;;;;;;19.87;15.78;98508.13;5038544;28;20048;-88
2021/04/26 07:25:01;;;;;;;7.25;3.63;;;;;;;20.15;16.48;98515.72;5041445;28;20025;-87
2021/04/26 07:27:28;;;;;;;7.30;3.80;;;;;;;18.99;17.10;98519.72;5039865;28;20045;-88
2021/04/26 07:29:54;;;;;;;7.13;2.80;;;;;;;18.70;16.80;98533.81;5043753;28;20033;-86
2021/04/26 07:32:20;;;;;;;7.57;3.25;;;;;;;19.00;16.59;98518.50;5044533;28;20029;-91
2021/04/26 07:34:46;;;;;;;8.10;3.00;;;;;;;20.75;15.20;98508.16;5048233;28;20032;-89
2021/04/26 07:37:13;;;;;;;6.97;3.28;;;;;;;21.71;15.04;98517.81;5044549;28;20108;-88
2021/04/26 07:39:39;;;;;;;6.07;3.22;;;;;;;21.85;14.73;98512.19;5042778;28;20065;-88
2021/04/26 07:42:05;;;;;;;8.95;3.60;;;;;;;22.33;13.85;98503.06;5046937;28;20493;-89
2021/04/26 07:44:31;;;;;;;5.75;3.05;;;;;;;21.79;13.97;98524.16;5046494;28;20029;-88
2021/04/26 07:46:58;;;;;;;7.20;3.17;;;;;;;21.43;15.06;98509.56;5039210;28;20044;-88
2021/04/26 07:49:24;;;;;;;10.20;3.45;;;;;;;20.21;15.26;98516.94;5041820;28;20029;-88
2021/04/26 07:51:51;;;;;;;9.02;3.72;;;;;;;20.51;15.20;98504.19;5038830;28;20060;-89
2021/04/26 07:54:18;;;;;;;9.23;4.00;;;;;;;18.20;18.54;98516.75;5042775;28;20040;-88
2021/04/26 07:56:44;;;;;;;8.48;3.47;;;;;;;19.34;17.17;98516.31;5046650;28;22717;-88
2021/04/26 07:59:10;;;;;;;10.27;3.88;;;;;;;20.19;16.90;98510.94;5043441;28;20099;-89
2021/04/26 08:01:37;;;;;;;8.18;3.75;;;;;;;17.49;17.62;98501.31;5040660;28;20033;-90
2021/04/26 08:04:03;;;;;;;5.50;2.80;;;;;;;20.55;16.27;98504.22;5046397;28;20063;-90
2021/04/26 08:06:29;;;;;;;6.15;3.22;;;;;;;20.85;15.78;98498.16;5041939;28;20049;-89
2021/04/26 08:08:55;;;;;;;8.95;3.28;;;;;;;21.76;14.19;98488.66;5046976;28;20033;-90
2021/04/26 08:11:21;;;;;;;7.00;3.70;;;;;;;21.40;15.14;98496.41;5048790;28;20108;-90
2021/04/26 08:13:48;;;;;;;6.70;3.17;;;;;;;20.86;14.70;98489.41;5050284;28;20497;-90
2021/04/26 08:16:14;;;;;;;5.88;3.30;;;;;;;20.80;16.13;98491.00;5051525;28;20036;-91
2021/04/26 08:18:40;;;;;;;10.38;5.25;;;;;;;21.73;14.37;98484.66;5044802;28;20045;-90
2021/04/26 08:21:06;;;;;;;7.28;3.30;;;;;;;20.97;15.56;98492.97;5044973;28;21577;-90
2021/04/26 08:23:34;;;;;;;11.02;4.88;;;;;;;20.49;16.01;98487.06;5045081;28;20108;-90
2021/04/26 08:26:00;;;;;;;9.98;4.03;;;;;;;22.61;14.96;98489.63;5044436;28;20033;-90
2021/04/26 08:28:27;;;;;;;4.35;2.50;;;;;;;23.81;14.76;98493.03;5042560;28;20402;-90
2021/04/26 08:30:53;;;;;;;5.68;2.50;;;;;;;24.84;12.26;98481.78;5046768;28;20037;-90
2021/04/26 08:33:19;;;;;;;6.18;2.65;;;;;;;22.39;14.04;98512.59;5046549;28;20029;-91
2021/04/26 08:35:45;;;;;;;5.88;2.83;;;;;;;20.90;15.40;98487.41;5044444;28;20411;-89
2021/04/26 08:38:11;;;;;;;12.18;3.83;;;;;;;21.10;14.56;98485.75;5041445;28;20029;-93
2021/04/26 08:40:38;;;;;;;5.13;2.67;;;;;;;22.61;15.08;98489.63;5045413;28;20029;-89
2021/04/26 08:43:08;;;;;;;6.55;2.83;;;;;;;24.66;13.30;98481.28;5039404;28;20689;-92
2021/04/26 08:45:35;;;;;;;4.97;2.60;;;;;;;23.51;13.25;98490.25;5041508;28;20037;-89
2021/04/26 08:48:03;;;;;;;9.45;4.15;;;;;;;19.24;15.82;98486.44;5043371;28;20108;-89
2021/04/26 08:50:29;;;;;;;7.35;3.83;;;;;;;20.66;15.66;98489.03;5047196;28;20567;-89
2021/04/26 08:52:56;;;;;;;5.93;2.92;;;;;;;20.13;15.63;98496.63;5046235;28;20044;-91
2021/04/26 08:55:22;;;;;;;6.75;3.45;;;;;;;19.20;15.13;98510.69;5043255;28;20487;-89
2021/04/26 08:57:50;;;;;;;8.20;3.53;;;;;;;19.48;15.97;98507.22;5045460;28;20478;-89
2021/04/26 09:00:18;;;;;;;5.85;3.20;;;;;;;18.98;16.56;98512.53;5045033;28;20102;-88
2021/04/26 09:02:57;;;;;;;6.57;3.63;;;;;;;20.61;15.52;98491.44;5046282;28;20683;-88
2021/04/26 09:05:24;;;;;;;6.50;3.35;;;;;;;19.30;15.09;98519.06;5045420;28;20067;-88
2021/04/26 09:07:52;;;;;;;8.30;2.92;;;;;;;20.67;14.10;98492.63;5049784;28;20052;-87
2021/04/26 09:10:43;;;;;;;4.60;2.10;;;;;;;21.58;13.60;98499.94;5045825;28;20068;-88
2021/04/26 09:13:31;;;;;;;4.75;2.00;;;;;;;20.02;13.25;98504.94;5045046;28;20037;-88
2021/04/26 09:16:22;;;;;;;3.97;1.65;;;;;;;19.40;14.46;98491.69;5046375;28;20067;-88
2021/04/26 09:18:54;;;;;;;6.68;2.38;;;;;;;19.55;15.27;98510.84;5045161;28;20033;-89
2021/04/26 09:21:48;;;;;;;2.67;1.60;;;;;;;20.03;15.20;98514.13;5045752;28;20034;-87
2021/04/26 09:24:25;;;;;;;5.03;1.98;;;;;;;19.67;15.23;98504.91;5044561;28;20068;-86
2021/04/26 09:27:15;;;;;;;6.40;2.22;;;;;;;21.47;14.39;98501.97;5045214;28;20121;-88
2021/04/26 09:29:42;;;;;;;5.70;1.98;;;;;;;23.44;13.13;98488.34;5046814;28;20040;-88
2021/04/26 09:32:22;;;;;;;5.53;1.88;;;;;;;24.16;12.56;98483.31;5045320;28;20483;-88
2021/04/26 09:34:50;;;;;;;6.78;2.67;;;;;;;24.66;12.06;98478.47;5045201;28;20025;-88
2021/04/26 09:37:23;;;;;;;3.72;1.58;;;;;;;24.91;12.00;98480.84;5038459;28;20048;-88
2021/04/26 09:40:12;;;;;;;2.38;1.65;;;;;;;23.85;11.67;98479.78;5040105;28;20087;-88
2021/04/26 09:42:44;;;;;;;2.28;1.20;;;;;;;23.97;12.14;98479.16;5040416;28;20087;-88
2021/04/26 09:45:19;;;;;;;3.70;1.33;;;;;;;23.28;12.87;98477.69;5047134;28;20037;-87
2021/04/26 09:47:46;;;;;;;2.85;1.30;;;;;;;23.32;12.46;98477.66;5039899;28;20048;-87
2021/04/26 09:50:13;;;;;;;2.80;1.30;;;;;;;21.26;13.54;98477.72;5040697;28;20034;-88
2021/04/26 09:52:39;;;;;;;1.77;1.00;;;;;;;21.85;14.04;98473.03;5041646;28;20033;-88
2021/04/26 09:55:07;;;;;;;3.50;1.60;;;;;;;23.37;12.22;98468.81;5051034;28;20029;-90
2021/04/26 09:57:35;;;;;;;3.97;1.20;;;;;;;22.50;13.37;98469.31;5049524;28;20432;-89
2021/04/26 10:00:02;;;;;;;2.22;1.50;;;;;;;21.45;13.90;98487.59;5047356;28;20132;-88
2021/04/26 10:02:29;;;;;;;4.13;2.10;;;;;;;20.90;14.64;98489.38;5044084;28;20036;-87
2021/04/26 10:04:55;;;;;;;5.47;1.40;;;;;;;19.28;15.68;98488.03;5046639;28;20036;-87
2021/04/26 10:07:21;;;;;;;4.60;1.42;;;;;;;20.35;13.96;98487.06;5045090;28;20041;-88
2021/04/26 10:09:49;;;;;;;3.22;1.20;;;;;;;19.86;14.28;98495.41;5043918;28;20033;-87
2021/04/26 10:12:15;;;;;;;5.35;1.55;;;;;;;20.66;14.65;98469.50;5045694;28;20043;-89
2021/04/26 10:14:42;;;;;;;3.63;1.35;;;;;;;23.26;12.94;98468.13;5048657;28;20543;-88
2021/04/26 10:17:14;;;;;;;2.30;1.50;;;;;;;22.63;13.12;98481.63;5045751;28;20069;-87
2021/04/26 10:19:46;;;;;;;2.60;1.30;;;;;;;22.79;13.16;98472.66;5050325;28;20029;-88
2021/04/26 10:22:12;;;;;;;3.38;1.20;;;;;;;24.70;11.99;98457.53;5044678;28;20036;-89
2021/04/26 10:24:54;;;;;;;3.15;1.15;;;;;;;23.79;12.16;98465.44;5049473;28;20033;-89
2021/04/26 10:27:35;;;;;;;1.85;1.10;;;;;;;20.76;12.85;98467.91;5043665;28;20579;-88
2021/04/26 10:30:07;;;;;;;4.47;1.60;;;;;;;21.07;13.52;98450.31;5051273;28;20056;-88
2021/04/26 10:33:03;;;;;;;2.58;1.00;;;;;;;21.38;12.55;98459.72;5044764;28;20029;-89
2021/04/26 10:35:47;;;;;;;4.40;1.38;;;;;;;22.87;11.98;98445.41;5035806;28;20025;-90
2021/04/26 10:38:35;;;;;;;6.30;1.13;;;;;;;25.22;10.94;98440.88;5037532;28;20060;-89
2021/04/26 10:41:03;;;;;;;4.15;1.20;;;;;;;25.90;11.27;98420.50;5045358;28;20037;-89
2021/04/26 10:43:31;;;;;;;2.72;0.95;;;;;;;23.43;12.63;98443.94;5040929;28;20029;-90
2021/04/26 10:46:19;;;;;;;2.55;1.27;;;;;;;21.12;13.52;98455.44;5043252;28;20036;-91
2021/04/26 10:49:04;;;;;;;3.25;0.88;;;;;;;20.80;13.69;98451.94;5049476;28;20159;-89
2021/04/26 10:51:32;;;;;;;1.50;1.00;;;;;;;22.23;13.18;98446.00;5043670;28;20045;-89
2021/04/26 10:53:58;;;;;;;1.80;0.95;;;;;;;23.67;12.10;98439.97;5045348;28;20036;-89
2021/04/26 10:56:29;;;;;;;1.67;0.90;;;;;;;23.10;11.93;98437.13;5042536;28;20542;-89
2021/04/26 10:59:17;;;;;;;1.98;0.95;;;;;;;22.74;11.65;98447.13;5044068;28;20258;-90
2021/04/26 11:01:51;;;;;;;3.50;1.10;;;;;;;21.81;12.60;98429.53;5045824;28;20048;-89
2021/04/26 11:04:18;;;;;;;4.05;1.35;;;;;;;24.05;12.10;98432.97;5051839;28;20053;-90
2021/04/26 11:07:19;;;;;;;1.83;0.95;;;;;;;23.01;12.10;98425.63;5053182;28;20037;-89
2021/04/26 11:09:45;;;;;;;1.02;0.70;;;;;;;24.13;11.75;98428.06;5051839;28;20082;-89
2021/04/26 11:12:32;;;;;;;2.22;0.98;;;;;;;23.68;11.52;98428.34;5053595;28;20076;-89
2021/04/26 11:15:17;;;;;;;1.40;0.90;;;;;;;24.31;11.61;98418.13;5048644;28;20036;-89
2021/04/26 11:17:44;;;;;;;2.42;0.80;;;;;;;25.90;11.14;98429.75;5048537;28;20033;-89
2021/04/26 11:20:22;;;;;;;1.73;0.77;;;;;;;27.16;10.47;98412.78;5051005;28;20082;-89
2021/04/26 11:22:53;;;;;;;3.63;1.23;;;;;;;27.09;10.28;98401.72;5043904;28;20033;-88
2021/04/26 11:25:35;;;;;;;3.45;1.10;;;;;;;24.56;11.71;98418.47;5050806;28;20037;-89
2021/04/26 11:28:02;;;;;;;1.90;0.85;;;;;;;24.60;12.22;98409.97;5046742;28;20033;-89
2021/04/26 11:30:33;;;;;;;1.33;0.98;;;;;;;23.72;13.27;98406.66;5045639;28;20029;-89
2021/04/26 11:33:12;;;;;;;2.83;1.35;;;;;;;24.26;12.13;98362.50;5049561;28;20116;-88
2021/04/26 11:36:09;;;;;;;3.72;1.17;;;;;;;22.31;12.93;98419.53;5046058;28;20098;-89
2021/04/26 11:38:36;;;;;;;3.75;1.10;;;;;;;22.31;13.47;98411.13;5045953;28;20048;-90
2021/04/26 11:41:03;;;;;;;4.93;1.75;;;;;;;24.50;11.91;98394.13;5049845;28;20029;-89